Alger, Washington
Current Conditions -  °F | °C
As of 8:22 AM on Friday 31 Oct 2014 (Local Time) from KNUW Reporting Station
Light Rain Light Rain  
Wind Chill: 53°   Ceiling: 1600
Heat Index: 53°   Visibility: 5mi
Dew Point: 50°   Wind: 7mph
Humidity: 89%   Direction: 330°NNW
Pressure: 29.72"   Gusts: NA
Location:  48.4982°N, 122.346°W
Report Text: KNUW 311522Z 33006KT 5SM -RA BR SCT005 BKN016 OVC043 12/10 A2972 RMK AO2 P0001 T01170100 $
Loading
Personal Weather Stations






























Interactive Weather Map
Tropical Storm Tracking
New forecast layout! Learn more

10-Day Weather Forecast

Advertisements
Track Severe Weather on mobile